Bayport, New York
Current Conditions -  °F | °C
As of 2:56 AM on Monday 22 Dec 2014 (Local Time) from KISP Reporting Station
Overcast Overcast  
Wind Chill: 34°   Ceiling: 800
Heat Index: 38°   Visibility: 10mi
Dew Point: 34°   Wind: 5mph
Humidity: 86%   Direction: 10°N
Pressure: 30.31"   Gusts: NA
Location:  40.74°N, 73.06°W
Report Text: KISP 220756Z AUTO 01004KT 10SM OVC008 03/01 A3031 RMK AO2 SLP263 T00330011
Loading
Personal Weather Stations






























Interactive Weather Map New forecast layout! Learn more

10-Day Weather Forecast

Advertisements
Track Severe Weather on mobile